createdAt,value
2023-09-29T00:02:10.957Z,9.02
2023-09-29T00:04:53.820Z,8.85
2023-09-29T00:07:36.929Z,8.48
2023-09-29T00:10:22.002Z,11.15
2023-09-29T00:13:05.988Z,9.88
2023-09-29T00:15:50.658Z,9.20
2023-09-29T00:18:34.901Z,9.18
2023-09-29T00:21:17.805Z,11.60
2023-09-29T00:24:00.727Z,7.60
2023-09-29T00:26:43.657Z,6.10
2023-09-29T00:29:26.560Z,6.47
2023-09-29T00:32:09.519Z,7.47
2023-09-29T00:34:53.748Z,7.30
2023-09-29T00:37:36.642Z,5.70
2023-09-29T00:40:19.798Z,6.47
2023-09-29T00:43:04.865Z,6.50
2023-09-29T00:45:49.993Z,10.07
2023-09-29T00:48:34.629Z,10.68
2023-09-29T00:54:09.624Z,10.23
2023-09-29T00:56:53.452Z,9.32
2023-09-29T00:59:37.062Z,12.88
2023-09-29T01:02:21.222Z,9.13
2023-09-29T01:05:04.086Z,9.05
2023-09-29T01:07:48.627Z,8.60
2023-09-29T01:10:31.485Z,11.63
2023-09-29T01:13:14.660Z,7.78
2023-09-29T01:15:57.560Z,8.52
2023-09-29T01:18:40.797Z,8.27
2023-09-29T01:21:23.746Z,6.85
2023-09-29T01:24:08.818Z,10.45
2023-09-29T01:26:51.892Z,8.43
2023-09-29T01:29:34.841Z,8.48
2023-09-29T01:32:17.746Z,7.40
2023-09-29T01:35:01.524Z,6.45
2023-09-29T01:37:45.342Z,5.45
2023-09-29T01:40:30.957Z,6.65
2023-09-29T01:43:14.071Z,6.75
2023-09-29T01:45:57.278Z,7.82
2023-09-29T01:48:41.729Z,6.85
2023-09-29T01:51:24.701Z,6.80
2023-09-29T01:54:08.219Z,6.30
2023-09-29T01:56:52.474Z,7.13
2023-09-29T01:59:35.753Z,10.48
2023-09-29T02:02:18.915Z,8.75
2023-09-29T02:05:01.955Z,5.43
2023-09-29T02:07:45.720Z,5.18
2023-09-29T02:10:29.046Z,7.90
2023-09-29T02:13:13.390Z,6.65
2023-09-29T02:15:56.297Z,6.95
2023-09-29T02:18:39.593Z,7.05
2023-09-29T02:21:23.842Z,7.40
2023-09-29T02:24:07.573Z,7.03
2023-09-29T02:26:51.911Z,9.02
2023-09-29T02:29:36.709Z,7.70
2023-09-29T02:32:19.624Z,6.05
2023-09-29T02:35:02.525Z,7.25
2023-09-29T02:37:45.541Z,7.13
2023-09-29T02:40:29.999Z,12.45
2023-09-29T02:43:13.014Z,9.68
2023-09-29T02:45:57.296Z,8.63
2023-09-29T02:48:40.246Z,7.57
2023-09-29T02:51:23.204Z,9.23
2023-09-29T02:54:11.673Z,7.43
2023-09-29T02:56:55.292Z,8.00
2023-09-29T02:59:39.104Z,6.93
2023-09-29T03:02:25.155Z,8.00
2023-09-29T03:05:10.177Z,8.52
2023-09-29T03:07:55.964Z,8.75
2023-09-29T03:10:39.159Z,11.43
2023-09-29T03:13:21.978Z,7.03
2023-09-29T03:16:05.353Z,6.45
2023-09-29T03:18:49.845Z,6.80
2023-09-29T03:21:33.997Z,6.35
2023-09-29T03:24:17.037Z,10.13
2023-09-29T03:27:00.137Z,8.32
2023-09-29T03:29:43.208Z,8.52
2023-09-29T03:32:26.209Z,5.90
2023-09-29T03:35:11.767Z,6.50
2023-09-29T03:37:54.668Z,5.88
2023-09-29T03:40:40.463Z,6.90
2023-09-29T03:43:24.452Z,7.05
2023-09-29T03:46:07.523Z,6.00
2023-09-29T03:48:50.409Z,7.53
2023-09-29T03:51:35.146Z,6.50
2023-09-29T03:57:05.053Z,6.00
2023-09-29T03:59:48.029Z,6.07
2023-09-29T04:02:32.675Z,8.65
2023-09-29T04:08:02.053Z,7.93
2023-09-29T04:10:44.923Z,5.97
2023-09-29T04:13:27.770Z,8.48
2023-09-29T04:16:10.684Z,9.43
2023-09-29T04:18:53.698Z,7.55
2023-09-29T04:21:36.622Z,7.45
2023-09-29T04:24:20.854Z,7.95
2023-09-29T04:27:03.988Z,7.82
2023-09-29T04:29:47.461Z,10.15
2023-09-29T04:32:30.572Z,10.95
2023-09-29T04:35:13.469Z,8.48
2023-09-29T04:37:56.366Z,7.88
2023-09-29T04:40:41.159Z,7.95
2023-09-29T04:46:06.938Z,8.07
2023-09-29T04:48:54.155Z,9.57
2023-09-29T04:51:38.710Z,7.03
2023-09-29T04:54:21.639Z,10.40
2023-09-29T04:57:05.873Z,6.75
2023-09-29T04:59:48.800Z,6.00
2023-09-29T05:02:31.723Z,7.57
2023-09-29T05:05:14.784Z,10.13
2023-09-29T05:07:57.742Z,7.35
2023-09-29T05:10:40.635Z,7.65
2023-09-29T05:13:25.922Z,6.53
2023-09-29T05:16:08.954Z,7.40
2023-09-29T05:18:54.680Z,6.95
2023-09-29T05:21:37.907Z,10.25
2023-09-29T05:24:20.870Z,8.65
2023-09-29T05:27:03.861Z,8.05
2023-09-29T05:29:48.335Z,8.23
2023-09-29T05:32:32.483Z,6.90
2023-09-29T05:35:15.651Z,6.70
2023-09-29T05:37:58.503Z,5.85
2023-09-29T05:40:41.439Z,6.45
2023-09-29T05:43:24.333Z,6.70
2023-09-29T05:46:08.712Z,7.68
2023-09-29T05:48:51.606Z,8.13
2023-09-29T05:51:34.480Z,9.38
2023-09-29T05:54:17.352Z,7.63
2023-09-29T05:57:00.336Z,6.35
2023-09-29T05:59:43.406Z,10.07
2023-09-29T06:02:27.753Z,8.50
2023-09-29T06:05:12.026Z,8.90
2023-09-29T06:07:58.109Z,8.50
2023-09-29T06:10:41.691Z,8.35
2023-09-29T06:13:24.709Z,11.85
2023-09-29T06:16:09.393Z,10.95
2023-09-29T06:21:37.095Z,6.67
2023-09-29T06:24:19.973Z,5.35
2023-09-29T06:27:03.996Z,6.53
2023-09-29T06:29:51.050Z,5.40
2023-09-29T06:32:34.203Z,3.75
2023-09-29T06:35:18.576Z,5.28
2023-09-29T06:38:01.448Z,8.48
2023-09-29T06:40:44.629Z,8.00
2023-09-29T06:43:27.486Z,7.38
2023-09-29T06:46:10.415Z,7.00
2023-09-29T06:48:54.739Z,7.60
2023-09-29T06:51:39.070Z,8.85
2023-09-29T06:54:22.107Z,8.13
2023-09-29T06:57:05.388Z,7.60
2023-09-29T06:59:49.348Z,8.18
2023-09-29T07:02:32.283Z,8.00
2023-09-29T07:05:16.981Z,8.80
2023-09-29T07:10:45.526Z,13.02
2023-09-29T07:13:28.448Z,12.02
2023-09-29T07:16:11.728Z,13.63
2023-09-29T07:18:55.059Z,14.35
2023-09-29T07:21:38.306Z,12.95
2023-09-29T07:24:23.987Z,10.70
2023-09-29T07:27:09.356Z,15.70
2023-09-29T07:29:52.422Z,11.13
2023-09-29T07:32:36.053Z,15.45
2023-09-29T07:35:20.271Z,12.80
2023-09-29T07:38:03.522Z,11.20
2023-09-29T07:40:49.108Z,10.25
2023-09-29T07:43:31.963Z,8.75
2023-09-29T07:46:15.281Z,9.00
2023-09-29T07:48:58.882Z,11.50
2023-09-29T07:51:42.102Z,13.32
2023-09-29T07:54:25.065Z,10.70
2023-09-29T07:57:09.338Z,13.05
2023-09-29T07:59:53.519Z,11.65
2023-09-29T08:02:37.061Z,9.13
2023-09-29T08:05:21.158Z,11.70
2023-09-29T08:08:04.462Z,11.67
2023-09-29T08:10:47.413Z,12.60
2023-09-29T08:13:32.674Z,11.02
2023-09-29T08:16:16.881Z,10.90
2023-09-29T08:19:00.022Z,14.85
2023-09-29T08:21:44.000Z,12.05
2023-09-29T08:24:26.921Z,12.73
2023-09-29T08:27:10.060Z,11.98
2023-09-29T08:29:55.976Z,10.98
2023-09-29T08:32:39.956Z,12.48
2023-09-29T08:35:22.970Z,13.87
2023-09-29T08:38:06.534Z,13.38
2023-09-29T08:40:53.479Z,13.70
2023-09-29T08:43:41.600Z,12.80
2023-09-29T08:46:28.632Z,9.10
2023-09-29T08:49:12.038Z,8.73
2023-09-29T08:51:56.611Z,10.48
2023-09-29T08:54:40.256Z,11.60
2023-09-29T08:57:24.596Z,10.68
2023-09-29T09:00:12.700Z,11.10
2023-09-29T09:02:59.782Z,13.43
2023-09-29T09:05:42.936Z,12.70
2023-09-29T09:08:26.432Z,9.70
2023-09-29T09:11:09.594Z,9.80
2023-09-29T09:14:01.137Z,11.13
2023-09-29T09:16:46.386Z,10.57
2023-09-29T09:19:30.734Z,11.48
2023-09-29T09:22:18.489Z,7.95
2023-09-29T09:25:05.405Z,10.80
2023-09-29T09:27:53.599Z,12.07
2023-09-29T09:30:38.944Z,9.80
2023-09-29T09:33:23.681Z,8.85
2023-09-29T09:36:11.500Z,10.60
2023-09-29T09:38:55.449Z,8.70
2023-09-29T09:41:39.608Z,7.38
2023-09-29T09:44:23.536Z,9.57
2023-09-29T09:47:13.058Z,8.97
2023-09-29T09:49:57.957Z,7.43
2023-09-29T09:52:45.428Z,9.00
2023-09-29T09:55:38.245Z,6.93
2023-09-29T09:58:24.744Z,8.38
2023-09-29T10:01:07.916Z,12.52
2023-09-29T10:03:52.014Z,8.32
2023-09-29T10:06:36.058Z,7.57
2023-09-29T10:09:21.829Z,7.30
2023-09-29T10:12:05.259Z,10.90
2023-09-29T10:14:48.187Z,8.27
2023-09-29T10:17:40.744Z,7.63
2023-09-29T10:20:27.772Z,9.00
2023-09-29T10:23:15.178Z,5.35
2023-09-29T10:26:00.670Z,7.50
2023-09-29T10:28:45.008Z,9.00
2023-09-29T10:31:30.590Z,7.43
2023-09-29T10:34:20.058Z,7.65
2023-09-29T10:37:03.639Z,5.70
2023-09-29T10:39:49.436Z,8.60
2023-09-29T10:42:39.281Z,8.10
2023-09-29T10:45:37.584Z,6.65
2023-09-29T10:48:24.372Z,8.30
2023-09-29T10:51:09.050Z,7.78
2023-09-29T10:56:36.885Z,6.00
2023-09-29T10:59:21.142Z,5.15
2023-09-29T11:02:04.236Z,5.18
2023-09-29T11:04:48.069Z,5.15
2023-09-29T11:07:32.088Z,7.38
2023-09-29T11:10:16.110Z,5.97
2023-09-29T11:12:59.007Z,6.32
2023-09-29T11:15:43.459Z,6.00
2023-09-29T11:18:30.572Z,5.43
2023-09-29T11:21:14.060Z,6.90
2023-09-29T11:23:57.885Z,5.70
2023-09-29T11:26:42.597Z,8.07
2023-09-29T11:32:10.666Z,6.38
2023-09-29T11:34:53.584Z,6.95
2023-09-29T11:37:36.469Z,7.13
2023-09-29T11:40:19.355Z,5.32
2023-09-29T11:43:02.208Z,4.72
2023-09-29T11:45:45.614Z,4.65
2023-09-29T11:48:30.221Z,5.25
2023-09-29T11:51:14.542Z,5.95
2023-09-29T11:53:58.002Z,5.10
2023-09-29T11:56:41.147Z,4.85
2023-09-29T11:59:24.033Z,3.80
2023-09-29T12:02:07.635Z,5.95
2023-09-29T12:04:52.285Z,5.18
2023-09-29T12:10:19.558Z,5.13
2023-09-29T12:13:02.496Z,4.75
2023-09-29T12:15:45.589Z,5.20
2023-09-29T12:18:28.798Z,5.65
2023-09-29T12:21:14.216Z,4.45
2023-09-29T12:23:57.425Z,5.03
2023-09-29T12:26:47.098Z,3.88
2023-09-29T12:29:30.877Z,3.83
2023-09-29T12:32:13.903Z,3.93
2023-09-29T12:34:56.889Z,4.60
2023-09-29T12:37:41.210Z,3.60
2023-09-29T12:40:24.308Z,5.85
2023-09-29T12:43:07.210Z,7.57
2023-09-29T12:45:51.324Z,4.35
2023-09-29T12:48:34.477Z,4.40
2023-09-29T12:51:27.310Z,3.80
2023-09-29T12:54:12.440Z,3.70
2023-09-29T12:57:03.001Z,3.20
2023-09-29T12:59:47.496Z,3.50
2023-09-29T13:02:33.168Z,3.63
2023-09-29T13:05:16.205Z,3.53
2023-09-29T13:08:00.001Z,2.80
2023-09-29T13:10:44.607Z,3.88
2023-09-29T13:16:12.382Z,3.55
2023-09-29T13:18:55.555Z,4.30
2023-09-29T13:21:38.556Z,3.35
2023-09-29T13:24:21.457Z,5.93
2023-09-29T13:27:05.861Z,3.10
2023-09-29T13:32:34.023Z,5.35
2023-09-29T13:35:17.341Z,3.60
2023-09-29T13:38:00.280Z,3.10
2023-09-29T13:40:43.236Z,3.05
2023-09-29T13:43:27.495Z,3.20
2023-09-29T13:46:10.666Z,4.00
2023-09-29T13:48:53.582Z,2.35
2023-09-29T13:51:36.491Z,3.00
2023-09-29T13:54:19.462Z,2.85
2023-09-29T13:57:04.550Z,3.08
2023-09-29T13:59:49.077Z,2.85
2023-09-29T14:05:15.168Z,3.65
2023-09-29T14:07:58.108Z,2.70
2023-09-29T14:10:41.139Z,3.20
2023-09-29T14:13:25.414Z,2.88
2023-09-29T14:16:09.703Z,2.28
2023-09-29T14:18:52.630Z,4.07
2023-09-29T14:21:35.596Z,4.22
2023-09-29T14:24:20.181Z,2.97
2023-09-29T14:27:03.195Z,2.60
2023-09-29T14:29:46.435Z,3.17
2023-09-29T14:32:30.707Z,3.35
2023-09-29T14:35:13.991Z,3.45
2023-09-29T14:37:56.910Z,4.28
2023-09-29T14:40:40.035Z,2.20
2023-09-29T14:43:25.170Z,2.10
2023-09-29T14:46:10.971Z,2.40
2023-09-29T14:48:55.464Z,4.35
2023-09-29T14:51:38.396Z,2.55
2023-09-29T14:54:22.014Z,3.00
2023-09-29T14:57:04.963Z,3.85
2023-09-29T14:59:48.689Z,2.90
2023-09-29T15:02:31.699Z,3.38
2023-09-29T15:05:16.103Z,3.25
2023-09-29T15:07:58.995Z,3.00
2023-09-29T15:10:43.334Z,3.50
2023-09-29T15:13:26.229Z,3.00
2023-09-29T15:16:12.956Z,2.20
2023-09-29T15:18:56.024Z,3.75
2023-09-29T15:21:40.356Z,3.25
2023-09-29T15:24:23.336Z,3.05
2023-09-29T15:27:07.528Z,5.80
2023-09-29T15:29:52.326Z,3.05
2023-09-29T15:32:35.421Z,6.15
2023-09-29T15:35:18.401Z,3.88
2023-09-29T15:38:03.006Z,4.05
2023-09-29T15:43:28.618Z,4.80
2023-09-29T15:46:12.507Z,4.32
2023-09-29T15:48:55.535Z,7.78
2023-09-29T15:51:38.454Z,4.35
2023-09-29T15:54:22.688Z,3.80
2023-09-29T15:57:05.680Z,5.25
2023-09-29T15:59:48.669Z,3.72
2023-09-29T16:02:31.559Z,4.00
2023-09-29T16:05:14.927Z,5.68
2023-09-29T16:07:58.994Z,3.22
2023-09-29T16:10:43.247Z,3.87
2023-09-29T16:13:26.159Z,3.58
2023-09-29T16:16:09.319Z,3.10
2023-09-29T16:18:52.561Z,4.10
2023-09-29T16:21:35.525Z,3.88
2023-09-29T16:24:18.744Z,5.18
2023-09-29T16:27:03.072Z,4.75
2023-09-29T16:29:45.949Z,4.90
2023-09-29T16:32:32.191Z,5.55
2023-09-29T16:35:18.991Z,4.57
2023-09-29T16:38:08.426Z,6.65
2023-09-29T16:40:51.936Z,5.25
2023-09-29T16:43:36.397Z,4.63
2023-09-29T16:46:20.513Z,4.10
2023-09-29T16:49:03.609Z,2.90
2023-09-29T16:51:46.486Z,3.22
2023-09-29T16:54:30.703Z,4.15
2023-09-29T16:57:14.775Z,4.53
2023-09-29T16:59:59.156Z,4.57
2023-09-29T17:02:42.137Z,3.85
2023-09-29T17:05:25.069Z,5.20
2023-09-29T17:08:08.221Z,5.93
2023-09-29T17:10:51.162Z,6.22
2023-09-29T17:13:35.564Z,5.00
2023-09-29T17:16:19.844Z,3.80
2023-09-29T17:19:02.739Z,5.13
2023-09-29T17:21:45.642Z,3.78
2023-09-29T17:24:28.525Z,4.97
2023-09-29T17:27:11.522Z,5.28
2023-09-29T17:29:54.426Z,4.40
2023-09-29T17:32:39.307Z,4.00
2023-09-29T17:35:22.429Z,3.92
2023-09-29T17:38:05.759Z,3.83
2023-09-29T17:40:50.818Z,7.70
2023-09-29T17:43:33.778Z,5.88
2023-09-29T17:46:16.710Z,4.78
2023-09-29T17:49:01.257Z,3.67
2023-09-29T17:51:44.474Z,4.80
2023-09-29T17:54:28.191Z,3.80
2023-09-29T17:57:11.237Z,4.40
2023-09-29T17:59:55.354Z,3.50
2023-09-29T18:02:38.308Z,3.45
2023-09-29T18:05:22.583Z,3.45
2023-09-29T18:08:05.882Z,4.10
2023-09-29T18:10:49.826Z,5.03
2023-09-29T18:13:34.532Z,3.70
2023-09-29T18:16:17.447Z,5.63
2023-09-29T18:19:00.803Z,3.08
2023-09-29T18:21:45.418Z,3.72
2023-09-29T18:24:28.429Z,4.45
2023-09-29T18:27:11.629Z,3.72
2023-09-29T18:29:54.978Z,4.05
2023-09-29T18:32:39.449Z,4.38
2023-09-29T18:35:22.415Z,4.55
2023-09-29T18:38:06.861Z,3.95
2023-09-29T18:40:49.833Z,4.55
2023-09-29T18:43:34.195Z,3.67
2023-09-29T18:46:18.164Z,5.05
2023-09-29T18:49:01.856Z,4.50
2023-09-29T18:51:44.828Z,4.05
2023-09-29T18:54:29.643Z,4.88
2023-09-29T18:57:12.647Z,4.85
2023-09-29T18:59:56.230Z,4.82
2023-09-29T19:02:39.257Z,4.80
2023-09-29T19:05:22.946Z,4.80
2023-09-29T19:08:06.394Z,7.57
2023-09-29T19:10:50.676Z,3.30
2023-09-29T19:13:34.035Z,4.85
2023-09-29T19:16:17.098Z,4.53
2023-09-29T19:19:00.658Z,4.97
2023-09-29T19:21:43.788Z,4.13
2023-09-29T19:24:26.832Z,5.05
2023-09-29T19:27:11.317Z,5.97
2023-09-29T19:29:55.985Z,4.13
2023-09-29T19:32:39.972Z,2.88
2023-09-29T19:35:22.940Z,3.90
2023-09-29T19:38:11.297Z,3.75
2023-09-29T19:40:54.173Z,5.32
2023-09-29T19:43:38.402Z,3.65
2023-09-29T19:46:23.229Z,3.97
2023-09-29T19:49:06.476Z,3.90
2023-09-29T19:51:49.860Z,3.22
2023-09-29T19:54:33.131Z,3.85
2023-09-29T19:57:17.979Z,11.52
2023-09-29T20:00:02.312Z,3.50
2023-09-29T20:02:55.466Z,3.40
2023-09-29T20:05:41.634Z,5.40
2023-09-29T20:08:27.581Z,3.60
2023-09-29T20:11:10.949Z,3.30
2023-09-29T20:13:53.949Z,3.67
2023-09-29T20:16:38.354Z,4.13
2023-09-29T20:19:21.289Z,3.50
2023-09-29T20:22:04.185Z,5.97
2023-09-29T20:24:47.558Z,4.28
2023-09-29T20:27:30.578Z,6.38
2023-09-29T20:30:14.852Z,4.47
2023-09-29T20:32:59.417Z,4.07
2023-09-29T20:35:42.357Z,4.75
2023-09-29T20:38:25.277Z,3.00
2023-09-29T20:41:10.821Z,4.32
2023-09-29T20:43:53.765Z,3.80
2023-09-29T20:46:36.697Z,5.88
2023-09-29T20:49:21.042Z,3.47
2023-09-29T20:52:04.758Z,4.38
2023-09-29T20:54:47.673Z,4.15
2023-09-29T20:57:30.590Z,3.50
2023-09-29T21:00:14.456Z,3.35
2023-09-29T21:02:57.665Z,5.87
2023-09-29T21:05:42.023Z,3.35
2023-09-29T21:08:24.946Z,2.92
2023-09-29T21:11:08.003Z,4.50
2023-09-29T21:13:50.945Z,3.03
2023-09-29T21:16:33.878Z,2.80
2023-09-29T21:19:16.829Z,2.67
2023-09-29T21:22:03.748Z,2.75
2023-09-29T21:24:47.481Z,3.10
2023-09-29T21:27:30.567Z,2.63
2023-09-29T21:30:14.853Z,2.20
2023-09-29T21:32:57.940Z,3.17
2023-09-29T21:35:40.880Z,4.63
2023-09-29T21:38:25.224Z,4.70
2023-09-29T21:41:08.178Z,3.40
2023-09-29T21:43:51.090Z,3.17
2023-09-29T21:46:34.035Z,2.13
2023-09-29T21:49:19.631Z,2.78
2023-09-29T21:52:02.636Z,2.85
2023-09-29T21:54:46.876Z,2.50
2023-09-29T21:57:30.340Z,2.67
2023-09-29T22:00:18.683Z,4.40
2023-09-29T22:03:01.933Z,3.67
2023-09-29T22:05:46.274Z,3.00
2023-09-29T22:08:29.210Z,2.72
2023-09-29T22:11:14.197Z,3.28
2023-09-29T22:13:57.232Z,2.58
2023-09-29T22:16:41.376Z,3.40
2023-09-29T22:19:24.295Z,3.23
2023-09-29T22:22:07.193Z,3.30
2023-09-29T22:24:51.158Z,5.07
2023-09-29T22:27:36.779Z,2.70
2023-09-29T22:30:19.957Z,3.72
2023-09-29T22:33:03.062Z,4.85
2023-09-29T22:35:46.170Z,4.00
2023-09-29T22:38:29.050Z,4.30
2023-09-29T22:41:15.945Z,2.63
2023-09-29T22:44:00.251Z,5.40
2023-09-29T22:46:43.157Z,3.28
2023-09-29T22:49:26.030Z,6.05
2023-09-29T22:52:09.133Z,3.30
2023-09-29T22:54:52.532Z,3.05
2023-09-29T22:57:35.518Z,3.22
2023-09-29T23:00:19.908Z,3.70
2023-09-29T23:03:04.303Z,3.13
2023-09-29T23:05:47.956Z,2.90
2023-09-29T23:08:31.366Z,3.95
2023-09-29T23:11:14.275Z,3.13
2023-09-29T23:13:58.398Z,4.90
2023-09-29T23:16:42.876Z,4.53
2023-09-29T23:19:26.204Z,4.30
2023-09-29T23:22:10.561Z,4.55
2023-09-29T23:24:53.506Z,4.95
2023-09-29T23:27:36.426Z,7.45
2023-09-29T23:30:20.022Z,5.55
2023-09-29T23:33:05.185Z,8.13
2023-09-29T23:35:49.149Z,8.55
2023-09-29T23:38:32.289Z,9.00
2023-09-29T23:41:16.050Z,10.05
2023-09-29T23:43:59.098Z,10.07
2023-09-29T23:46:42.135Z,10.15
2023-09-29T23:49:26.956Z,13.60
2023-09-29T23:54:54.145Z,12.30
2023-09-29T23:57:37.962Z,14.65
